sensor_id;sensor_type;location;lat;lon;timestamp;temperature;humidity
14585;DHT22;7379;51.506;11.876;2023-04-03T00:01:31;7.00;61.20
14585;DHT22;7379;51.506;11.876;2023-04-03T00:03:58;7.00;61.30
14585;DHT22;7379;51.506;11.876;2023-04-03T00:06:27;7.00;61.30
14585;DHT22;7379;51.506;11.876;2023-04-03T00:08:54;7.00;61.30
14585;DHT22;7379;51.506;11.876;2023-04-03T00:11:21;7.00;61.30
14585;DHT22;7379;51.506;11.876;2023-04-03T00:13:48;7.00;61.40
14585;DHT22;7379;51.506;11.876;2023-04-03T00:16:15;6.90;61.20
14585;DHT22;7379;51.506;11.876;2023-04-03T00:18:42;6.90;61.20
14585;DHT22;7379;51.506;11.876;2023-04-03T00:21:10;6.90;61.20
14585;DHT22;7379;51.506;11.876;2023-04-03T00:23:39;6.90;61.20
14585;DHT22;7379;51.506;11.876;2023-04-03T00:26:06;6.90;61.20
14585;DHT22;7379;51.506;11.876;2023-04-03T00:28:34;6.90;61.30
14585;DHT22;7379;51.506;11.876;2023-04-03T00:31:01;6.90;61.30
14585;DHT22;7379;51.506;11.876;2023-04-03T00:33:28;6.90;61.30
14585;DHT22;7379;51.506;11.876;2023-04-03T00:35:54;6.90;61.30
14585;DHT22;7379;51.506;11.876;2023-04-03T00:38:21;6.80;61.40
14585;DHT22;7379;51.506;11.876;2023-04-03T00:40:49;6.80;61.40
14585;DHT22;7379;51.506;11.876;2023-04-03T00:43:18;6.80;61.30
14585;DHT22;7379;51.506;11.876;2023-04-03T00:45:46;6.80;61.40
14585;DHT22;7379;51.506;11.876;2023-04-03T00:48:17;6.80;61.40
14585;DHT22;7379;51.506;11.876;2023-04-03T00:50:45;6.80;61.40
14585;DHT22;7379;51.506;11.876;2023-04-03T00:53:14;6.80;61.40
14585;DHT22;7379;51.506;11.876;2023-04-03T00:55:43;6.80;61.40
14585;DHT22;7379;51.506;11.876;2023-04-03T00:58:12;6.80;61.30
14585;DHT22;7379;51.506;11.876;2023-04-03T01:00:43;6.70;61.40
14585;DHT22;7379;51.506;11.876;2023-04-03T01:03:11;6.70;61.30
14585;DHT22;7379;51.506;11.876;2023-04-03T01:05:38;6.70;61.20
14585;DHT22;7379;51.506;11.876;2023-04-03T01:08:06;6.70;61.20
14585;DHT22;7379;51.506;11.876;2023-04-03T01:10:32;6.70;61.20
14585;DHT22;7379;51.506;11.876;2023-04-03T01:13:00;6.70;61.30
14585;DHT22;7379;51.506;11.876;2023-04-03T01:15:29;6.70;61.40
14585;DHT22;7379;51.506;11.876;2023-04-03T01:18:00;6.70;61.40
14585;DHT22;7379;51.506;11.876;2023-04-03T01:20:50;6.60;61.20
14585;DHT22;7379;51.506;11.876;2023-04-03T01:23:36;6.60;61.20
14585;DHT22;7379;51.506;11.876;2023-04-03T01:26:06;6.60;61.20
14585;DHT22;7379;51.506;11.876;2023-04-03T01:28:35;6.60;61.20
14585;DHT22;7379;51.506;11.876;2023-04-03T01:31:13;6.60;61.90
14585;DHT22;7379;51.506;11.876;2023-04-03T01:33:43;6.50;61.20
14585;DHT22;7379;51.506;11.876;2023-04-03T01:36:14;6.50;61.20
14585;DHT22;7379;51.506;11.876;2023-04-03T01:38:41;6.60;61.20
14585;DHT22;7379;51.506;11.876;2023-04-03T01:41:09;6.50;61.00
14585;DHT22;7379;51.506;11.876;2023-04-03T01:43:35;6.50;61.10
14585;DHT22;7379;51.506;11.876;2023-04-03T01:46:02;6.50;61.10
14585;DHT22;7379;51.506;11.876;2023-04-03T01:48:29;6.50;61.10
14585;DHT22;7379;51.506;11.876;2023-04-03T01:50:57;6.50;61.10
14585;DHT22;7379;51.506;11.876;2023-04-03T01:53:24;6.50;61.20
14585;DHT22;7379;51.506;11.876;2023-04-03T01:55:51;6.40;61.10
14585;DHT22;7379;51.506;11.876;2023-04-03T01:58:18;6.40;61.20
14585;DHT22;7379;51.506;11.876;2023-04-03T02:00:45;6.40;61.20
14585;DHT22;7379;51.506;11.876;2023-04-03T02:03:12;6.40;61.20
14585;DHT22;7379;51.506;11.876;2023-04-03T02:05:38;6.40;61.30
14585;DHT22;7379;51.506;11.876;2023-04-03T02:08:07;6.40;61.20
14585;DHT22;7379;51.506;11.876;2023-04-03T02:10:33;6.40;61.30
14585;DHT22;7379;51.506;11.876;2023-04-03T02:13:00;6.30;61.20
14585;DHT22;7379;51.506;11.876;2023-04-03T02:15:27;6.30;61.30
14585;DHT22;7379;51.506;11.876;2023-04-03T02:17:54;6.30;61.20
14585;DHT22;7379;51.506;11.876;2023-04-03T02:20:21;6.30;61.40
14585;DHT22;7379;51.506;11.876;2023-04-03T02:22:47;6.30;61.30
14585;DHT22;7379;51.506;11.876;2023-04-03T02:25:16;6.30;61.30
14585;DHT22;7379;51.506;11.876;2023-04-03T02:27:44;6.30;61.40
14585;DHT22;7379;51.506;11.876;2023-04-03T02:30:11;6.30;61.40
14585;DHT22;7379;51.506;11.876;2023-04-03T02:32:40;6.20;61.20
14585;DHT22;7379;51.506;11.876;2023-04-03T02:35:07;6.20;61.30
14585;DHT22;7379;51.506;11.876;2023-04-03T02:37:34;6.20;61.20
14585;DHT22;7379;51.506;11.876;2023-04-03T02:40:01;6.20;61.10
14585;DHT22;7379;51.506;11.876;2023-04-03T02:42:29;6.20;61.30
14585;DHT22;7379;51.506;11.876;2023-04-03T02:44:56;6.20;61.30
14585;DHT22;7379;51.506;11.876;2023-04-03T02:47:23;6.10;61.20
14585;DHT22;7379;51.506;11.876;2023-04-03T02:49:50;6.10;61.20
14585;DHT22;7379;51.506;11.876;2023-04-03T02:52:18;6.10;61.30
14585;DHT22;7379;51.506;11.876;2023-04-03T02:54:45;6.10;61.40
14585;DHT22;7379;51.506;11.876;2023-04-03T02:57:12;6.10;61.30
14585;DHT22;7379;51.506;11.876;2023-04-03T02:59:40;6.10;61.30
14585;DHT22;7379;51.506;11.876;2023-04-03T03:02:07;6.10;61.30
14585;DHT22;7379;51.506;11.876;2023-04-03T03:04:34;6.10;61.40
14585;DHT22;7379;51.506;11.876;2023-04-03T03:07:01;6.10;62.10
14585;DHT22;7379;51.506;11.876;2023-04-03T03:09:29;6.10;61.40
14585;DHT22;7379;51.506;11.876;2023-04-03T03:11:55;6.00;61.40
14585;DHT22;7379;51.506;11.876;2023-04-03T03:14:22;6.00;61.30
14585;DHT22;7379;51.506;11.876;2023-04-03T03:16:50;6.00;61.30
14585;DHT22;7379;51.506;11.876;2023-04-03T03:19:17;6.00;61.30
14585;DHT22;7379;51.506;11.876;2023-04-03T03:21:44;6.00;61.50
14585;DHT22;7379;51.506;11.876;2023-04-03T03:24:11;5.90;61.40
14585;DHT22;7379;51.506;11.876;2023-04-03T03:26:38;6.00;61.50
14585;DHT22;7379;51.506;11.876;2023-04-03T03:29:05;6.00;61.50
14585;DHT22;7379;51.506;11.876;2023-04-03T03:31:32;5.90;61.40
14585;DHT22;7379;51.506;11.876;2023-04-03T03:34:00;5.90;61.40
14585;DHT22;7379;51.506;11.876;2023-04-03T03:36:27;5.90;61.40
14585;DHT22;7379;51.506;11.876;2023-04-03T03:38:54;5.90;61.40
14585;DHT22;7379;51.506;11.876;2023-04-03T03:41:21;5.90;61.50
14585;DHT22;7379;51.506;11.876;2023-04-03T03:43:48;5.80;61.50
14585;DHT22;7379;51.506;11.876;2023-04-03T03:46:15;5.90;61.70
14585;DHT22;7379;51.506;11.876;2023-04-03T03:48:41;5.80;61.50
14585;DHT22;7379;51.506;11.876;2023-04-03T03:51:10;5.80;61.40
14585;DHT22;7379;51.506;11.876;2023-04-03T03:53:36;5.80;61.50
14585;DHT22;7379;51.506;11.876;2023-04-03T03:56:04;5.80;61.60
14585;DHT22;7379;51.506;11.876;2023-04-03T03:58:31;5.80;61.50
14585;DHT22;7379;51.506;11.876;2023-04-03T04:01:00;5.80;61.50
14585;DHT22;7379;51.506;11.876;2023-04-03T04:03:27;5.80;61.50
14585;DHT22;7379;51.506;11.876;2023-04-03T04:05:54;5.70;61.40
14585;DHT22;7379;51.506;11.876;2023-04-03T04:08:22;5.70;61.50
14585;DHT22;7379;51.506;11.876;2023-04-03T04:10:49;5.70;61.40
14585;DHT22;7379;51.506;11.876;2023-04-03T04:13:16;5.70;61.50
14585;DHT22;7379;51.506;11.876;2023-04-03T04:15:43;5.70;61.50
14585;DHT22;7379;51.506;11.876;2023-04-03T04:18:10;5.70;61.50
14585;DHT22;7379;51.506;11.876;2023-04-03T04:20:36;5.70;62.30
14585;DHT22;7379;51.506;11.876;2023-04-03T04:23:03;5.70;61.40
14585;DHT22;7379;51.506;11.876;2023-04-03T04:25:32;5.60;61.50
14585;DHT22;7379;51.506;11.876;2023-04-03T04:27:59;5.60;61.40
14585;DHT22;7379;51.506;11.876;2023-04-03T04:30:25;5.60;61.30
14585;DHT22;7379;51.506;11.876;2023-04-03T04:32:52;5.60;61.40
14585;DHT22;7379;51.506;11.876;2023-04-03T04:35:19;5.60;61.40
14585;DHT22;7379;51.506;11.876;2023-04-03T04:37:46;5.60;61.40
14585;DHT22;7379;51.506;11.876;2023-04-03T04:40:13;5.60;61.40
14585;DHT22;7379;51.506;11.876;2023-04-03T04:42:41;5.60;61.50
14585;DHT22;7379;51.506;11.876;2023-04-03T04:45:09;5.50;61.30
14585;DHT22;7379;51.506;11.876;2023-04-03T04:47:38;5.50;61.30
14585;DHT22;7379;51.506;11.876;2023-04-03T04:50:09;5.50;61.30
14585;DHT22;7379;51.506;11.876;2023-04-03T04:52:36;5.50;61.30
14585;DHT22;7379;51.506;11.876;2023-04-03T04:55:03;5.50;61.30
14585;DHT22;7379;51.506;11.876;2023-04-03T04:57:30;5.50;61.30
14585;DHT22;7379;51.506;11.876;2023-04-03T04:59:58;5.50;61.30
14585;DHT22;7379;51.506;11.876;2023-04-03T05:02:25;5.50;61.30
14585;DHT22;7379;51.506;11.876;2023-04-03T05:04:52;5.50;61.30
14585;DHT22;7379;51.506;11.876;2023-04-03T05:07:19;5.40;61.30
14585;DHT22;7379;51.506;11.876;2023-04-03T05:09:45;5.40;61.30
14585;DHT22;7379;51.506;11.876;2023-04-03T05:12:12;5.40;61.30
14585;DHT22;7379;51.506;11.876;2023-04-03T05:14:39;5.40;61.30
14585;DHT22;7379;51.506;11.876;2023-04-03T05:17:07;5.40;61.30
14585;DHT22;7379;51.506;11.876;2023-04-03T05:19:34;5.40;61.30
14585;DHT22;7379;51.506;11.876;2023-04-03T05:22:01;5.40;61.40
14585;DHT22;7379;51.506;11.876;2023-04-03T05:24:28;5.40;61.30
14585;DHT22;7379;51.506;11.876;2023-04-03T05:26:55;5.40;61.30
14585;DHT22;7379;51.506;11.876;2023-04-03T05:29:22;5.40;61.30
14585;DHT22;7379;51.506;11.876;2023-04-03T05:31:49;5.40;61.40
14585;DHT22;7379;51.506;11.876;2023-04-03T05:34:17;5.30;61.20
14585;DHT22;7379;51.506;11.876;2023-04-03T05:36:44;5.30;61.20
14585;DHT22;7379;51.506;11.876;2023-04-03T05:39:11;5.30;61.10
14585;DHT22;7379;51.506;11.876;2023-04-03T05:41:38;5.30;61.10
14585;DHT22;7379;51.506;11.876;2023-04-03T05:44:05;5.30;61.30
14585;DHT22;7379;51.506;11.876;2023-04-03T05:46:31;5.30;61.20
14585;DHT22;7379;51.506;11.876;2023-04-03T05:48:58;5.30;61.10
14585;DHT22;7379;51.506;11.876;2023-04-03T05:51:33;5.30;61.10
14585;DHT22;7379;51.506;11.876;2023-04-03T05:54:04;5.30;61.80
14585;DHT22;7379;51.506;11.876;2023-04-03T05:56:32;5.30;61.10
14585;DHT22;7379;51.506;11.876;2023-04-03T05:58:59;5.30;61.30
14585;DHT22;7379;51.506;11.876;2023-04-03T06:01:26;5.30;61.30
14585;DHT22;7379;51.506;11.876;2023-04-03T06:03:53;5.30;61.20
14585;DHT22;7379;51.506;11.876;2023-04-03T06:06:21;5.30;61.90
14585;DHT22;7379;51.506;11.876;2023-04-03T06:08:50;5.30;61.90
14585;DHT22;7379;51.506;11.876;2023-04-03T06:11:17;5.30;61.20
14585;DHT22;7379;51.506;11.876;2023-04-03T06:13:44;5.30;61.20
14585;DHT22;7379;51.506;11.876;2023-04-03T06:16:12;5.30;61.20
14585;DHT22;7379;51.506;11.876;2023-04-03T06:18:40;5.20;61.10
14585;DHT22;7379;51.506;11.876;2023-04-03T06:21:07;5.20;61.10
14585;DHT22;7379;51.506;11.876;2023-04-03T06:23:34;5.20;61.20
14585;DHT22;7379;51.506;11.876;2023-04-03T06:26:03;5.20;61.20
14585;DHT22;7379;51.506;11.876;2023-04-03T06:28:31;5.20;61.20
14585;DHT22;7379;51.506;11.876;2023-04-03T06:30:57;5.20;61.00
14585;DHT22;7379;51.506;11.876;2023-04-03T06:33:24;5.20;61.10
14585;DHT22;7379;51.506;11.876;2023-04-03T06:35:56;5.20;61.20
14585;DHT22;7379;51.506;11.876;2023-04-03T06:38:23;5.10;61.10
14585;DHT22;7379;51.506;11.876;2023-04-03T06:40:50;5.20;61.40
14585;DHT22;7379;51.506;11.876;2023-04-03T06:43:20;5.20;61.30
14585;DHT22;7379;51.506;11.876;2023-04-03T06:45:47;5.10;61.20
14585;DHT22;7379;51.506;11.876;2023-04-03T06:48:14;5.20;61.40
14585;DHT22;7379;51.506;11.876;2023-04-03T06:50:41;5.20;61.30
14585;DHT22;7379;51.506;11.876;2023-04-03T06:53:08;5.20;61.30
14585;DHT22;7379;51.506;11.876;2023-04-03T06:55:35;5.20;61.20
14585;DHT22;7379;51.506;11.876;2023-04-03T06:58:02;5.20;61.00
14585;DHT22;7379;51.506;11.876;2023-04-03T07:00:31;5.30;61.00
14585;DHT22;7379;51.506;11.876;2023-04-03T07:02:58;5.30;61.00
14585;DHT22;7379;51.506;11.876;2023-04-03T07:05:25;5.30;61.80
14585;DHT22;7379;51.506;11.876;2023-04-03T07:07:53;5.30;61.00
14585;DHT22;7379;51.506;11.876;2023-04-03T07:10:19;5.40;61.00
14585;DHT22;7379;51.506;11.876;2023-04-03T07:12:46;5.40;60.90
14585;DHT22;7379;51.506;11.876;2023-04-03T07:15:13;5.40;60.90
14585;DHT22;7379;51.506;11.876;2023-04-03T07:17:42;5.40;60.80
14585;DHT22;7379;51.506;11.876;2023-04-03T07:20:10;5.40;60.70
14585;DHT22;7379;51.506;11.876;2023-04-03T07:22:37;5.50;60.80
14585;DHT22;7379;51.506;11.876;2023-04-03T07:25:05;5.50;60.70
14585;DHT22;7379;51.506;11.876;2023-04-03T07:27:46;5.50;60.70
14585;DHT22;7379;51.506;11.876;2023-04-03T07:30:13;5.50;60.70
14585;DHT22;7379;51.506;11.876;2023-04-03T07:32:41;5.50;60.70
14585;DHT22;7379;51.506;11.876;2023-04-03T07:35:09;5.50;60.70
14585;DHT22;7379;51.506;11.876;2023-04-03T07:37:35;5.50;60.70
14585;DHT22;7379;51.506;11.876;2023-04-03T07:40:03;5.50;60.70
14585;DHT22;7379;51.506;11.876;2023-04-03T07:42:30;5.60;60.60
14585;DHT22;7379;51.506;11.876;2023-04-03T07:44:57;5.60;60.60
14585;DHT22;7379;51.506;11.876;2023-04-03T07:47:24;5.60;60.70
14585;DHT22;7379;51.506;11.876;2023-04-03T07:49:52;5.60;60.60
14585;DHT22;7379;51.506;11.876;2023-04-03T07:52:19;5.60;61.10
14585;DHT22;7379;51.506;11.876;2023-04-03T07:54:46;5.60;60.50
14585;DHT22;7379;51.506;11.876;2023-04-03T07:57:13;5.50;60.70
14585;DHT22;7379;51.506;11.876;2023-04-03T07:59:40;5.50;60.70
14585;DHT22;7379;51.506;11.876;2023-04-03T08:02:09;5.50;60.90
14585;DHT22;7379;51.506;11.876;2023-04-03T08:04:36;5.40;61.00
14585;DHT22;7379;51.506;11.876;2023-04-03T08:07:04;5.50;61.00
14585;DHT22;7379;51.506;11.876;2023-04-03T08:09:31;5.40;60.80
14585;DHT22;7379;51.506;11.876;2023-04-03T08:11:58;5.50;60.80
14585;DHT22;7379;51.506;11.876;2023-04-03T08:14:25;5.50;60.80
14585;DHT22;7379;51.506;11.876;2023-04-03T08:16:52;5.50;60.90
14585;DHT22;7379;51.506;11.876;2023-04-03T08:19:18;5.50;61.10
14585;DHT22;7379;51.506;11.876;2023-04-03T08:21:45;5.50;61.20
14585;DHT22;7379;51.506;11.876;2023-04-03T08:24:13;5.50;60.80
14585;DHT22;7379;51.506;11.876;2023-04-03T08:26:40;5.50;60.70
14585;DHT22;7379;51.506;11.876;2023-04-03T08:29:07;5.50;60.50
14585;DHT22;7379;51.506;11.876;2023-04-03T08:31:34;5.50;60.80
14585;DHT22;7379;51.506;11.876;2023-04-03T08:34:01;5.50;60.70
14585;DHT22;7379;51.506;11.876;2023-04-03T08:36:28;5.50;60.70
14585;DHT22;7379;51.506;11.876;2023-04-03T08:38:56;5.50;60.80
14585;DHT22;7379;51.506;11.876;2023-04-03T08:41:31;5.50;60.70
14585;DHT22;7379;51.506;11.876;2023-04-03T08:44:10;5.50;60.00
14585;DHT22;7379;51.506;11.876;2023-04-03T08:46:52;5.50;59.80
14585;DHT22;7379;51.506;11.876;2023-04-03T08:49:25;5.50;59.70
14585;DHT22;7379;51.506;11.876;2023-04-03T08:51:55;5.60;59.80
14585;DHT22;7379;51.506;11.876;2023-04-03T08:54:28;5.60;60.00
14585;DHT22;7379;51.506;11.876;2023-04-03T08:56:58;5.60;59.80
14585;DHT22;7379;51.506;11.876;2023-04-03T08:59:29;5.60;60.20
14585;DHT22;7379;51.506;11.876;2023-04-03T09:02:00;5.50;60.30
14585;DHT22;7379;51.506;11.876;2023-04-03T09:04:31;5.50;60.50
14585;DHT22;7379;51.506;11.876;2023-04-03T09:07:06;5.50;60.60
14585;DHT22;7379;51.506;11.876;2023-04-03T09:09:36;5.50;60.70
14585;DHT22;7379;51.506;11.876;2023-04-03T09:12:15;5.50;60.80
14585;DHT22;7379;51.506;11.876;2023-04-03T09:14:49;5.50;60.70
14585;DHT22;7379;51.506;11.876;2023-04-03T09:17:29;5.50;60.70
14585;DHT22;7379;51.506;11.876;2023-04-03T09:20:04;5.50;60.80
14585;DHT22;7379;51.506;11.876;2023-04-03T09:22:38;5.50;61.60
14585;DHT22;7379;51.506;11.876;2023-04-03T09:25:12;5.50;60.80
14585;DHT22;7379;51.506;11.876;2023-04-03T09:27:41;5.50;60.60
14585;DHT22;7379;51.506;11.876;2023-04-03T09:30:13;5.50;60.50
14585;DHT22;7379;51.506;11.876;2023-04-03T09:32:43;5.50;60.40
14585;DHT22;7379;51.506;11.876;2023-04-03T09:35:18;5.50;60.20
14585;DHT22;7379;51.506;11.876;2023-04-03T09:37:48;5.50;59.90
14585;DHT22;7379;51.506;11.876;2023-04-03T09:40:34;5.50;59.70
14585;DHT22;7379;51.506;11.876;2023-04-03T09:43:28;5.50;59.60
14585;DHT22;7379;51.506;11.876;2023-04-03T09:46:15;5.50;59.60
14585;DHT22;7379;51.506;11.876;2023-04-03T09:48:50;5.50;59.50
14585;DHT22;7379;51.506;11.876;2023-04-03T09:51:17;5.50;59.30
14585;DHT22;7379;51.506;11.876;2023-04-03T09:53:44;5.50;59.40
14585;DHT22;7379;51.506;11.876;2023-04-03T09:56:20;5.50;59.30
14585;DHT22;7379;51.506;11.876;2023-04-03T09:58:52;5.50;59.30
14585;DHT22;7379;51.506;11.876;2023-04-03T10:01:29;5.50;59.80
14585;DHT22;7379;51.506;11.876;2023-04-03T10:04:06;5.50;59.10
14585;DHT22;7379;51.506;11.876;2023-04-03T10:06:35;5.50;59.10
14585;DHT22;7379;51.506;11.876;2023-04-03T10:09:04;5.50;59.20
14585;DHT22;7379;51.506;11.876;2023-04-03T10:11:31;5.50;59.10
14585;DHT22;7379;51.506;11.876;2023-04-03T10:14:02;5.50;59.00
14585;DHT22;7379;51.506;11.876;2023-04-03T10:16:36;5.50;58.70
14585;DHT22;7379;51.506;11.876;2023-04-03T10:19:27;5.50;58.80
14585;DHT22;7379;51.506;11.876;2023-04-03T10:21:59;5.50;58.60
14585;DHT22;7379;51.506;11.876;2023-04-03T10:24:35;5.60;58.30
14585;DHT22;7379;51.506;11.876;2023-04-03T10:27:05;5.60;57.70
14585;DHT22;7379;51.506;11.876;2023-04-03T10:29:40;5.60;57.70
14585;DHT22;7379;51.506;11.876;2023-04-03T10:32:26;5.60;57.60
14585;DHT22;7379;51.506;11.876;2023-04-03T10:35:01;5.60;57.90
14585;DHT22;7379;51.506;11.876;2023-04-03T10:37:34;5.60;57.90
14585;DHT22;7379;51.506;11.876;2023-04-03T10:40:20;5.70;58.10
14585;DHT22;7379;51.506;11.876;2023-04-03T10:42:52;5.70;57.90
14585;DHT22;7379;51.506;11.876;2023-04-03T10:45:27;5.70;58.20
14585;DHT22;7379;51.506;11.876;2023-04-03T10:48:02;5.70;58.30
14585;DHT22;7379;51.506;11.876;2023-04-03T10:50:38;5.70;58.30
14585;DHT22;7379;51.506;11.876;2023-04-03T10:53:14;5.70;58.30
14585;DHT22;7379;51.506;11.876;2023-04-03T10:55:48;5.70;58.30
14585;DHT22;7379;51.506;11.876;2023-04-03T10:58:24;5.70;57.70
14585;DHT22;7379;51.506;11.876;2023-04-03T11:00:55;5.70;57.20
14585;DHT22;7379;51.506;11.876;2023-04-03T11:03:30;5.80;57.20
14585;DHT22;7379;51.506;11.876;2023-04-03T11:06:00;5.80;57.40
14585;DHT22;7379;51.506;11.876;2023-04-03T11:08:32;5.80;56.70
14585;DHT22;7379;51.506;11.876;2023-04-03T11:11:03;5.90;56.40
14585;DHT22;7379;51.506;11.876;2023-04-03T11:13:34;5.90;56.40
14585;DHT22;7379;51.506;11.876;2023-04-03T11:16:04;5.90;56.10
14585;DHT22;7379;51.506;11.876;2023-04-03T11:18:36;6.00;56.10
14585;DHT22;7379;51.506;11.876;2023-04-03T11:21:08;6.00;56.20
14585;DHT22;7379;51.506;11.876;2023-04-03T11:23:40;6.00;56.40
14585;DHT22;7379;51.506;11.876;2023-04-03T11:26:11;5.90;56.40
14585;DHT22;7379;51.506;11.876;2023-04-03T11:28:40;6.00;56.30
14585;DHT22;7379;51.506;11.876;2023-04-03T11:31:27;6.00;56.40
14585;DHT22;7379;51.506;11.876;2023-04-03T11:34:05;6.00;56.10
14585;DHT22;7379;51.506;11.876;2023-04-03T11:36:40;6.00;56.50
14585;DHT22;7379;51.506;11.876;2023-04-03T11:39:16;6.00;56.50
14585;DHT22;7379;51.506;11.876;2023-04-03T11:41:45;6.00;56.00
14585;DHT22;7379;51.506;11.876;2023-04-03T11:44:33;6.10;56.00
14585;DHT22;7379;51.506;11.876;2023-04-03T11:47:04;6.10;55.10
14585;DHT22;7379;51.506;11.876;2023-04-03T11:49:50;6.10;55.20
14585;DHT22;7379;51.506;11.876;2023-04-03T11:55:52;6.10;55.40
14585;DHT22;7379;51.506;11.876;2023-04-03T11:58:20;6.10;55.60
14585;DHT22;7379;51.506;11.876;2023-04-03T12:01:05;6.10;55.70
14585;DHT22;7379;51.506;11.876;2023-04-03T12:04:05;6.10;55.60
14585;DHT22;7379;51.506;11.876;2023-04-03T12:06:58;6.20;55.50
14585;DHT22;7379;51.506;11.876;2023-04-03T12:09:33;6.20;55.00
14585;DHT22;7379;51.506;11.876;2023-04-03T12:12:21;6.20;54.80
14585;DHT22;7379;51.506;11.876;2023-04-03T12:14:48;6.30;54.60
14585;DHT22;7379;51.506;11.876;2023-04-03T12:17:22;6.30;54.30
14585;DHT22;7379;51.506;11.876;2023-04-03T12:19:52;6.30;54.90
14585;DHT22;7379;51.506;11.876;2023-04-03T12:22:19;6.20;54.90
14585;DHT22;7379;51.506;11.876;2023-04-03T12:24:48;6.30;54.40
14585;DHT22;7379;51.506;11.876;2023-04-03T12:27:32;6.30;54.20
14585;DHT22;7379;51.506;11.876;2023-04-03T12:30:05;6.30;54.60
14585;DHT22;7379;51.506;11.876;2023-04-03T12:32:48;6.30;54.90
14585;DHT22;7379;51.506;11.876;2023-04-03T12:35:24;6.40;55.00
14585;DHT22;7379;51.506;11.876;2023-04-03T12:41:19;6.50;54.80
14585;DHT22;7379;51.506;11.876;2023-04-03T12:43:58;6.50;54.30
14585;DHT22;7379;51.506;11.876;2023-04-03T12:46:32;6.60;54.50
14585;DHT22;7379;51.506;11.876;2023-04-03T12:49:01;6.70;54.10
14585;DHT22;7379;51.506;11.876;2023-04-03T12:51:35;6.70;54.50
14585;DHT22;7379;51.506;11.876;2023-04-03T12:54:12;6.80;54.20
14585;DHT22;7379;51.506;11.876;2023-04-03T13:03:06;7.00;52.50
14585;DHT22;7379;51.506;11.876;2023-04-03T13:05:45;7.00;52.20
14585;DHT22;7379;51.506;11.876;2023-04-03T13:08:14;6.90;52.80
14585;DHT22;7379;51.506;11.876;2023-04-03T13:10:47;6.90;53.50
14585;DHT22;7379;51.506;11.876;2023-04-03T13:13:16;6.90;53.80
14585;DHT22;7379;51.506;11.876;2023-04-03T13:15:45;6.90;53.50
14585;DHT22;7379;51.506;11.876;2023-04-03T13:18:38;7.00;53.40
14585;DHT22;7379;51.506;11.876;2023-04-03T13:21:06;7.00;53.20
14585;DHT22;7379;51.506;11.876;2023-04-03T13:23:37;7.00;53.20
14585;DHT22;7379;51.506;11.876;2023-04-03T13:26:05;7.00;52.80
14585;DHT22;7379;51.506;11.876;2023-04-03T13:28:34;6.90;53.00
14585;DHT22;7379;51.506;11.876;2023-04-03T13:31:05;6.90;53.20
14585;DHT22;7379;51.506;11.876;2023-04-03T13:33:34;6.80;53.50
14585;DHT22;7379;51.506;11.876;2023-04-03T13:36:05;6.90;53.50
14585;DHT22;7379;51.506;11.876;2023-04-03T13:38:34;6.80;53.40
14585;DHT22;7379;51.506;11.876;2023-04-03T13:41:04;6.90;52.90
14585;DHT22;7379;51.506;11.876;2023-04-03T13:43:34;6.80;53.00
14585;DHT22;7379;51.506;11.876;2023-04-03T13:46:04;6.90;53.80
14585;DHT22;7379;51.506;11.876;2023-04-03T13:48:36;6.80;53.50
14585;DHT22;7379;51.506;11.876;2023-04-03T13:51:05;6.80;53.80
14585;DHT22;7379;51.506;11.876;2023-04-03T13:53:41;6.80;54.10
14585;DHT22;7379;51.506;11.876;2023-04-03T13:56:15;6.70;54.30
14585;DHT22;7379;51.506;11.876;2023-04-03T13:58:53;6.70;54.30
14585;DHT22;7379;51.506;11.876;2023-04-03T14:01:22;6.70;54.60
14585;DHT22;7379;51.506;11.876;2023-04-03T14:03:53;6.70;55.20
14585;DHT22;7379;51.506;11.876;2023-04-03T14:06:20;6.60;54.30
14585;DHT22;7379;51.506;11.876;2023-04-03T14:08:49;6.70;54.00
14585;DHT22;7379;51.506;11.876;2023-04-03T14:11:19;6.70;54.10
14585;DHT22;7379;51.506;11.876;2023-04-03T14:13:47;6.70;54.30
14585;DHT22;7379;51.506;11.876;2023-04-03T14:16:18;6.70;54.50
14585;DHT22;7379;51.506;11.876;2023-04-03T14:18:49;6.70;54.30
14585;DHT22;7379;51.506;11.876;2023-04-03T14:21:17;6.70;54.30
14585;DHT22;7379;51.506;11.876;2023-04-03T14:23:45;6.70;54.20
14585;DHT22;7379;51.506;11.876;2023-04-03T14:26:16;6.70;54.30
14585;DHT22;7379;51.506;11.876;2023-04-03T14:28:43;6.80;54.60
14585;DHT22;7379;51.506;11.876;2023-04-03T14:31:10;6.80;54.20
14585;DHT22;7379;51.506;11.876;2023-04-03T14:33:37;6.80;54.40
14585;DHT22;7379;51.506;11.876;2023-04-03T14:36:12;6.80;54.40
14585;DHT22;7379;51.506;11.876;2023-04-03T14:38:40;6.80;54.10
14585;DHT22;7379;51.506;11.876;2023-04-03T14:41:07;6.80;54.10
14585;DHT22;7379;51.506;11.876;2023-04-03T14:43:35;6.80;54.20
14585;DHT22;7379;51.506;11.876;2023-04-03T14:46:02;6.70;54.20
14585;DHT22;7379;51.506;11.876;2023-04-03T14:48:29;6.70;54.50
14585;DHT22;7379;51.506;11.876;2023-04-03T14:50:56;6.70;54.50
14585;DHT22;7379;51.506;11.876;2023-04-03T14:53:24;6.70;54.30
14585;DHT22;7379;51.506;11.876;2023-04-03T14:55:52;6.70;54.50
14585;DHT22;7379;51.506;11.876;2023-04-03T14:58:20;6.70;55.00
14585;DHT22;7379;51.506;11.876;2023-04-03T15:00:49;6.70;54.80
14585;DHT22;7379;51.506;11.876;2023-04-03T15:03:17;6.70;54.90
14585;DHT22;7379;51.506;11.876;2023-04-03T15:05:45;6.60;54.90
14585;DHT22;7379;51.506;11.876;2023-04-03T15:08:21;6.60;55.00
14585;DHT22;7379;51.506;11.876;2023-04-03T15:10:49;6.60;54.90
14585;DHT22;7379;51.506;11.876;2023-04-03T15:13:18;6.60;55.20
14585;DHT22;7379;51.506;11.876;2023-04-03T15:15:46;6.60;55.20
14585;DHT22;7379;51.506;11.876;2023-04-03T15:18:20;6.60;55.30
14585;DHT22;7379;51.506;11.876;2023-04-03T15:20:48;6.60;55.90
14585;DHT22;7379;51.506;11.876;2023-04-03T15:23:16;6.60;55.10
14585;DHT22;7379;51.506;11.876;2023-04-03T15:25:43;6.60;55.00
14585;DHT22;7379;51.506;11.876;2023-04-03T15:28:18;6.60;55.10
14585;DHT22;7379;51.506;11.876;2023-04-03T15:30:45;6.60;55.00
14585;DHT22;7379;51.506;11.876;2023-04-03T15:33:12;6.60;55.00
14585;DHT22;7379;51.506;11.876;2023-04-03T15:35:40;6.60;55.00
14585;DHT22;7379;51.506;11.876;2023-04-03T15:38:07;6.60;54.20
14585;DHT22;7379;51.506;11.876;2023-04-03T15:40:34;6.70;54.40
14585;DHT22;7379;51.506;11.876;2023-04-03T15:43:01;6.70;54.50
14585;DHT22;7379;51.506;11.876;2023-04-03T15:45:29;6.70;54.70
14585;DHT22;7379;51.506;11.876;2023-04-03T15:47:57;6.70;54.90
14585;DHT22;7379;51.506;11.876;2023-04-03T15:50:24;6.70;54.70
14585;DHT22;7379;51.506;11.876;2023-04-03T15:52:52;6.70;54.70
14585;DHT22;7379;51.506;11.876;2023-04-03T15:55:21;6.70;54.90
14585;DHT22;7379;51.506;11.876;2023-04-03T15:57:47;6.60;55.00
14585;DHT22;7379;51.506;11.876;2023-04-03T16:00:15;6.70;55.00
14585;DHT22;7379;51.506;11.876;2023-04-03T16:02:42;6.60;55.00
14585;DHT22;7379;51.506;11.876;2023-04-03T16:05:10;6.60;55.10
14585;DHT22;7379;51.506;11.876;2023-04-03T16:07:38;6.60;55.10
14585;DHT22;7379;51.506;11.876;2023-04-03T16:10:09;6.60;54.80
14585;DHT22;7379;51.506;11.876;2023-04-03T16:12:37;6.60;54.80
14585;DHT22;7379;51.506;11.876;2023-04-03T16:15:05;6.60;54.80